createdAt,value
2019-02-28T00:01:32.537Z,70.28
2019-02-28T00:04:03.678Z,70.50
2019-02-28T00:06:32.939Z,70.72
2019-02-28T00:09:02.101Z,70.80
2019-02-28T00:11:32.464Z,70.89
2019-02-28T00:14:01.674Z,71.14
2019-02-28T00:16:30.830Z,70.96
2019-02-28T00:19:00.038Z,71.41
2019-02-28T00:21:29.171Z,71.34
2019-02-28T00:23:58.685Z,72.14
2019-02-28T00:26:27.858Z,72.35
2019-02-28T00:29:00.490Z,72.48
2019-02-28T00:31:27.972Z,72.58
2019-02-28T00:33:57.138Z,72.43
2019-02-28T00:36:26.288Z,72.69
2019-02-28T00:38:55.823Z,73.17
2019-02-28T00:41:25.090Z,73.19
2019-02-28T00:43:56.868Z,73.29
2019-02-28T00:46:25.203Z,73.29
2019-02-28T00:48:54.402Z,74.14
2019-02-28T00:51:23.577Z,74.99
2019-02-28T00:53:52.765Z,75.21
2019-02-28T00:56:21.898Z,74.98
2019-02-28T00:58:51.083Z,74.44
2019-02-28T01:01:20.228Z,73.94
2019-02-28T01:03:49.380Z,73.87
2019-02-28T01:06:18.579Z,74.64
2019-02-28T01:08:47.734Z,75.01
2019-02-28T01:11:17.855Z,74.64
2019-02-28T01:13:47.007Z,74.59
2019-02-28T01:16:19.423Z,74.62
2019-02-28T01:18:47.285Z,75.10
2019-02-28T01:21:16.533Z,75.81
2019-02-28T01:23:45.706Z,75.96
2019-02-28T01:26:14.949Z,76.35
2019-02-28T01:28:44.129Z,76.13
2019-02-28T01:31:13.320Z,76.01
2019-02-28T01:33:42.470Z,75.69
2019-02-28T01:36:12.181Z,75.40
2019-02-28T01:38:42.707Z,75.36
2019-02-28T01:41:11.968Z,75.46
2019-02-28T01:43:41.141Z,75.53
2019-02-28T01:46:10.327Z,76.00
2019-02-28T01:48:39.583Z,76.02
2019-02-28T01:51:08.728Z,76.00
2019-02-28T01:53:37.878Z,76.12
2019-02-28T01:56:07.071Z,75.97
2019-02-28T01:58:36.236Z,76.78
2019-02-28T02:01:05.842Z,76.89
2019-02-28T02:05:55.408Z,77.88
2019-02-28T02:08:24.615Z,77.68
2019-02-28T02:10:55.842Z,77.02
2019-02-28T02:13:24.790Z,76.78
2019-02-28T02:15:54.045Z,76.78
2019-02-28T02:18:23.235Z,76.85
2019-02-28T02:20:52.384Z,77.24
2019-02-28T02:23:21.685Z,77.44
2019-02-28T02:25:50.932Z,77.21
2019-02-28T02:28:20.143Z,77.34
2019-02-28T02:30:50.914Z,77.22
2019-02-28T02:33:20.161Z,76.91
2019-02-28T02:35:49.414Z,76.75
2019-02-28T02:38:18.604Z,76.70
2019-02-28T02:40:47.752Z,76.65
2019-02-28T02:43:16.960Z,76.63
2019-02-28T02:45:46.173Z,76.37
2019-02-28T02:48:15.363Z,76.62
2019-02-28T02:50:44.517Z,76.56
2019-02-28T02:53:13.875Z,76.81
2019-02-28T02:55:43.092Z,77.85
2019-02-28T02:58:12.278Z,77.76
2019-02-28T03:00:41.510Z,77.49
2019-02-28T03:03:10.759Z,77.29
2019-02-28T03:05:39.935Z,77.14
2019-02-28T03:08:09.234Z,77.30
2019-02-28T03:10:38.399Z,77.58
2019-02-28T03:13:07.557Z,77.81
2019-02-28T03:15:37.297Z,77.68
